Time,TemperatureF,DewpointF,PressureIn,WindDirection,WindDirectionDegrees,WindSpeedMPH,WindSpeedGustMPH,Humidity,HourlyPrecipIn,Conditions,Clouds,dailyrainin,SolarRadiationWatts/m^2,SoftwareType,DateUTC
2013-02-18 00:00:00,27.9,12.1,29.79,NW,315,8.0,18.0,51,0.00,,,0.00,0,WeatherCatV1.12B45,2013-02-18 07:00:00,
2013-02-18 00:05:00,27.6,16.3,29.79,WSW,248,9.0,17.0,62,0.00,,,0.00,0,WeatherCatV1.12B45,2013-02-18 07:05:00,
2013-02-18 00:10:00,27.6,16.3,29.79,WSW,248,9.0,17.0,62,0.00,,,0.00,0,WeatherCatV1.12B45,2013-02-18 07:10:00,
2013-02-18 00:15:00,27.6,16.3,29.79,WSW,248,9.0,17.0,62,0.00,,,0.00,0,WeatherCatV1.12B45,2013-02-18 07:15:00,
2013-02-18 00:20:00,25.4,19.5,29.79,NW,315,8.0,17.0,78,0.00,,,0.00,0,WeatherCatV1.12B45,2013-02-18 07:20:00,
2013-02-18 00:25:00,25.4,19.5,29.79,NW,315,8.0,17.0,78,0.00,,,0.00,0,WeatherCatV1.12B45,2013-02-18 07:25:00,
2013-02-18 00:30:00,25.4,19.5,29.79,NW,315,8.0,17.0,78,0.00,,,0.00,0,WeatherCatV1.12B45,2013-02-18 07:30:00,
2013-02-18 00:35:00,24.7,19.1,29.79,NW,315,5.0,10.0,79,0.00,,,0.00,0,WeatherCatV1.12B45,2013-02-18 07:35:00,
2013-02-18 00:40:00,24.7,19.1,29.79,NW,315,5.0,10.0,79,0.00,,,0.00,0,WeatherCatV1.12B45,2013-02-18 07:40:00,
2013-02-18 00:45:00,24.7,19.1,29.79,NW,315,5.0,10.0,79,0.00,,,0.00,0,WeatherCatV1.12B45,2013-02-18 07:45:00,
2013-02-18 00:50:00,24.5,18.3,29.79,NW,315,4.0,9.0,77,0.00,,,0.00,0,WeatherCatV1.12B45,2013-02-18 07:50:00,
2013-02-18 00:55:00,24.5,18.3,29.79,NW,315,4.0,9.0,77,0.00,,,0.00,0,WeatherCatV1.12B45,2013-02-18 07:55:00,
2013-02-18 01:00:00,24.5,18.3,29.79,NW,315,4.0,9.0,77,0.00,,,0.00,0,WeatherCatV1.12B45,2013-02-18 08:00:00,
2013-02-18 01:05:00,24.2,18.6,29.79,NW,315,5.0,14.0,79,0.00,,,0.00,0,WeatherCatV1.12B45,2013-02-18 08:05:00,
2013-02-18 01:10:00,24.2,18.6,29.79,NW,315,5.0,14.0,79,0.00,,,0.00,0,WeatherCatV1.12B45,2013-02-18 08:10:00,
2013-02-18 01:15:00,23.8,18.8,29.79,WNW,292,3.0,10.0,81,0.00,,,0.00,0,WeatherCatV1.12B45,2013-02-18 08:15:00,
2013-02-18 01:20:00,23.8,18.8,29.79,WNW,292,3.0,10.0,81,0.00,,,0.00,0,WeatherCatV1.12B45,2013-02-18 08:20:00,
2013-02-18 01:25:00,23.8,18.8,29.79,WNW,292,3.0,10.0,81,0.00,,,0.00,0,WeatherCatV1.12B45,2013-02-18 08:25:00,
2013-02-18 01:30:00,23.6,18.4,29.79,NW,315,2.0,8.0,80,0.00,,,0.00,0,WeatherCatV1.12B45,2013-02-18 08:30:00,
2013-02-18 01:35:00,23.6,18.4,29.79,NW,315,2.0,8.0,80,0.00,,,0.00,0,WeatherCatV1.12B45,2013-02-18 08:35:00,
2013-02-18 01:40:00,23.6,18.4,29.79,NW,315,2.0,8.0,80,0.00,,,0.00,0,WeatherCatV1.12B45,2013-02-18 08:40:00,
2013-02-18 01:45:00,24.2,16.5,29.79,SW,225,5.0,17.0,72,0.00,,,0.00,0,WeatherCatV1.12B45,2013-02-18 08:45:00,
2013-02-18 01:50:00,24.2,16.5,29.79,SW,225,5.0,17.0,72,0.00,,,0.00,0,WeatherCatV1.12B45,2013-02-18 08:50:00,
2013-02-18 01:55:00,24.2,16.5,29.79,SW,225,5.0,17.0,72,0.00,,,0.00,0,WeatherCatV1.12B45,2013-02-18 08:55:00,
2013-02-18 02:00:00,24.2,16.5,29.79,SW,225,5.0,17.0,72,0.00,,,0.00,0,WeatherCatV1.12B45,2013-02-18 09:00:00,
2013-02-18 02:05:00,24.4,17.3,29.79,WSW,248,5.0,13.0,74,0.00,,,0.00,0,WeatherCatV1.12B45,2013-02-18 09:05:00,
2013-02-18 02:10:00,24.4,17.3,29.79,WSW,248,5.0,13.0,74,0.00,,,0.00,0,WeatherCatV1.12B45,2013-02-18 09:10:00,
2013-02-18 02:15:00,24.4,17.3,29.79,WSW,248,5.0,13.0,74,0.00,,,0.00,0,WeatherCatV1.12B45,2013-02-18 09:15:00,
2013-02-18 02:20:00,24.4,14.3,29.79,West,270,6.0,16.0,65,0.00,,,0.00,0,WeatherCatV1.12B45,2013-02-18 09:20:00,
2013-02-18 02:25:00,24.4,14.3,29.79,West,270,6.0,16.0,65,0.00,,,0.00,0,WeatherCatV1.12B45,2013-02-18 09:25:00,
2013-02-18 02:30:00,24.4,14.3,29.79,West,270,6.0,16.0,65,0.00,,,0.00,0,WeatherCatV1.12B45,2013-02-18 09:30:00,
2013-02-18 02:35:00,25.0,13.1,29.79,WSW,248,9.0,24.0,60,0.00,,,0.00,0,WeatherCatV1.12B45,2013-02-18 09:35:00,
2013-02-18 02:40:00,25.0,13.1,29.79,WSW,248,9.0,24.0,60,0.00,,,0.00,0,WeatherCatV1.12B45,2013-02-18 09:40:00,
2013-02-18 02:45:00,25.0,13.1,29.79,WSW,248,9.0,24.0,60,0.00,,,0.00,0,WeatherCatV1.12B45,2013-02-18 09:45:00,
2013-02-18 02:50:00,24.7,13.9,29.80,WSW,248,8.0,20.0,63,0.00,,,0.00,0,WeatherCatV1.12B45,2013-02-18 09:50:00,
2013-02-18 02:55:00,24.7,13.9,29.80,WSW,248,8.0,20.0,63,0.00,,,0.00,0,WeatherCatV1.12B45,2013-02-18 09:55:00,
2013-02-18 03:00:00,24.7,13.9,29.80,WSW,248,8.0,20.0,63,0.00,,,0.00,0,WeatherCatV1.12B45,2013-02-18 10:00:00,
2013-02-18 03:05:00,24.1,12.6,29.79,West,270,10.0,24.0,61,0.00,,,0.00,0,WeatherCatV1.12B45,2013-02-18 10:05:00,
2013-02-18 03:10:00,24.1,12.6,29.79,West,270,10.0,24.0,61,0.00,,,0.00,0,WeatherCatV1.12B45,2013-02-18 10:10:00,
2013-02-18 03:15:00,24.1,12.6,29.79,West,270,10.0,24.0,61,0.00,,,0.00,0,WeatherCatV1.12B45,2013-02-18 10:15:00,
2013-02-18 03:20:00,23.6,12.9,29.80,West,270,13.0,29.0,63,0.00,,,0.00,0,WeatherCatV1.12B45,2013-02-18 10:20:00,
2013-02-18 03:25:00,23.6,12.9,29.80,West,270,13.0,29.0,63,0.00,,,0.00,0,WeatherCatV1.12B45,2013-02-18 10:25:00,
2013-02-18 03:30:00,23.6,12.9,29.80,West,270,13.0,29.0,63,0.00,,,0.00,0,WeatherCatV1.12B45,2013-02-18 10:30:00,
2013-02-18 03:35:00,23.3,13.3,29.80,WNW,292,10.0,20.0,65,0.00,,,0.00,0,WeatherCatV1.12B45,2013-02-18 10:35:00,
2013-02-18 03:40:00,23.3,13.3,29.80,WNW,292,10.0,20.0,65,0.00,,,0.00,0,WeatherCatV1.12B45,2013-02-18 10:40:00,
2013-02-18 03:45:00,23.3,13.3,29.80,WNW,292,10.0,20.0,65,0.00,,,0.00,0,WeatherCatV1.12B45,2013-02-18 10:45:00,
2013-02-18 03:50:00,22.7,14.4,29.81,NNW,338,2.0,10.0,70,0.00,,,0.00,0,WeatherCatV1.12B45,2013-02-18 10:50:00,
2013-02-18 03:55:00,22.7,14.4,29.81,NNW,338,2.0,10.0,70,0.00,,,0.00,0,WeatherCatV1.12B45,2013-02-18 10:55:00,
2013-02-18 04:00:00,22.7,14.4,29.81,NNW,338,2.0,10.0,70,0.00,,,0.00,0,WeatherCatV1.12B45,2013-02-18 11:00:00,
2013-02-18 04:05:00,22.5,11.5,29.82,WSW,248,4.0,14.0,62,0.00,,,0.00,0,WeatherCatV1.12B45,2013-02-18 11:05:00,
2013-02-18 04:10:00,22.5,11.5,29.82,WSW,248,4.0,14.0,62,0.00,,,0.00,0,WeatherCatV1.12B45,2013-02-18 11:10:00,
2013-02-18 04:15:00,22.5,11.5,29.82,WSW,248,4.0,14.0,62,0.00,,,0.00,0,WeatherCatV1.12B45,2013-02-18 11:15:00,
2013-02-18 04:20:00,22.7,9.4,29.83,West,270,7.0,18.0,56,0.00,,,0.00,0,WeatherCatV1.12B45,2013-02-18 11:20:00,
2013-02-18 04:25:00,22.7,9.4,29.83,West,270,7.0,18.0,56,0.00,,,0.00,0,WeatherCatV1.12B45,2013-02-18 11:25:00,
2013-02-18 04:30:00,22.7,9.4,29.83,West,270,7.0,18.0,56,0.00,,,0.00,0,WeatherCatV1.12B45,2013-02-18 11:30:00,
2013-02-18 04:35:00,20.5,10.6,29.85,West,270,6.0,16.0,65,0.00,,,0.00,0,WeatherCatV1.12B45,2013-02-18 11:35:00,
2013-02-18 04:40:00,20.5,10.6,29.85,West,270,6.0,16.0,65,0.00,,,0.00,0,WeatherCatV1.12B45,2013-02-18 11:40:00,
2013-02-18 04:45:00,20.5,10.6,29.85,West,270,6.0,16.0,65,0.00,,,0.00,0,WeatherCatV1.12B45,2013-02-18 11:45:00,
2013-02-18 04:50:00,19.7,11.8,29.86,NW,315,8.0,17.0,71,0.00,,,0.00,0,WeatherCatV1.12B45,2013-02-18 11:50:00,
2013-02-18 04:55:00,19.7,11.8,29.86,NW,315,8.0,17.0,71,0.00,,,0.00,0,WeatherCatV1.12B45,2013-02-18 11:55:00,
2013-02-18 05:07:00,19.7,11.8,29.86,NW,315,8.0,17.0,71,0.00,,,0.00,0,WeatherCatV1.12B45,2013-02-18 12:07:00,
2013-02-18 05:12:00,18.3,10.2,29.86,West,280,0.0,0.0,70,0.00,,,0.00,0,WeatherCatV1.12B45,2013-02-18 12:12:00,
2013-02-18 05:17:00,18.1,9.3,29.87,West,280,3.0,6.0,68,0.00,,,0.00,0,WeatherCatV1.12B45,2013-02-18 12:17:00,
2013-02-18 05:22:00,17.8,8.4,29.87,WNW,298,6.0,6.0,66,0.00,,,0.00,0,WeatherCatV1.12B45,2013-02-18 12:22:00,
2013-02-18 05:27:00,17.7,8.3,29.87,NNW,333,5.0,7.0,66,0.00,,,0.00,0,WeatherCatV1.12B45,2013-02-18 12:27:00,
2013-02-18 05:32:00,17.5,7.4,29.88,NW,326,5.0,10.0,64,0.00,,,0.00,0,WeatherCatV1.12B45,2013-02-18 12:32:00,
2013-02-18 05:37:00,17.5,5.6,29.88,North,353,7.0,10.0,59,0.00,,,0.00,0,WeatherCatV1.12B45,2013-02-18 12:37:00,
2013-02-18 05:42:00,17.8,5.9,29.88,NNW,337,5.0,10.0,59,0.00,,,0.00,0,WeatherCatV1.12B45,2013-02-18 12:42:00,
2013-02-18 05:47:00,18.0,6.1,29.89,NW,316,4.0,8.0,59,0.00,,,0.00,0,WeatherCatV1.12B45,2013-02-18 12:47:00,
2013-02-18 05:52:00,17.8,5.9,29.89,NNW,336,2.0,10.0,59,0.00,,,0.00,0,WeatherCatV1.12B45,2013-02-18 12:52:00,
2013-02-18 05:57:00,17.5,6.7,29.89,NW,322,2.0,7.0,62,0.00,,,0.00,0,WeatherCatV1.12B45,2013-02-18 12:57:00,
2013-02-18 06:02:00,17.2,6.8,29.90,NW,312,4.0,10.0,63,0.00,,,0.00,0,WeatherCatV1.12B45,2013-02-18 13:02:00,
2013-02-18 06:07:00,16.9,6.5,29.90,NW,315,6.0,7.0,63,0.00,,,0.00,0,WeatherCatV1.12B45,2013-02-18 13:07:00,
2013-02-18 06:12:00,16.7,5.6,29.90,NW,325,5.0,7.0,61,0.00,,,0.00,0,WeatherCatV1.12B45,2013-02-18 13:12:00,
2013-02-18 06:17:00,16.5,4.7,29.90,NW,308,8.0,8.0,59,0.00,,,0.00,0,WeatherCatV1.12B45,2013-02-18 13:17:00,
2013-02-18 06:22:00,16.4,4.6,29.90,WNW,301,6.0,8.0,59,0.00,,,0.00,0,WeatherCatV1.12B45,2013-02-18 13:22:00,
2013-02-18 06:27:00,16.1,4.3,29.90,WNW,301,7.0,11.0,59,0.00,,,0.00,0,WeatherCatV1.12B45,2013-02-18 13:27:00,
2013-02-18 06:32:00,15.9,3.8,29.91,NW,308,4.0,8.0,58,0.00,,,0.00,0,WeatherCatV1.12B45,2013-02-18 13:32:00,
2013-02-18 06:37:00,15.7,2.8,29.91,NW,316,7.0,12.0,56,0.00,,,0.00,0,WeatherCatV1.12B45,2013-02-18 13:37:00,
2013-02-18 06:42:00,15.9,2.6,29.91,NW,311,6.0,11.0,55,0.00,,,0.00,0,WeatherCatV1.12B45,2013-02-18 13:42:00,
2013-02-18 06:47:00,15.9,3.0,29.91,NW,304,10.0,14.0,56,0.00,,,0.00,0,WeatherCatV1.12B45,2013-02-18 13:47:00,
2013-02-18 06:52:00,15.7,2.4,29.91,WNW,302,7.0,17.0,55,0.00,,,0.00,7,WeatherCatV1.12B45,2013-02-18 13:52:00,
2013-02-18 06:57:00,15.7,2.4,29.91,NW,326,7.0,12.0,55,0.00,,,0.00,9,WeatherCatV1.12B45,2013-02-18 13:57:00,
2013-02-18 07:02:00,15.7,2.0,29.92,WNW,298,8.0,15.0,54,0.00,,,0.00,11,WeatherCatV1.12B45,2013-02-18 14:02:00,
2013-02-18 07:07:00,15.9,2.2,29.92,NW,319,10.0,14.0,54,0.00,,,0.00,12,WeatherCatV1.12B45,2013-02-18 14:07:00,
2013-02-18 07:12:00,15.9,2.2,29.92,WNW,289,13.0,17.0,54,0.00,,,0.00,14,WeatherCatV1.12B45,2013-02-18 14:12:00,
2013-02-18 07:17:00,16.1,2.4,29.94,NW,318,6.0,14.0,54,0.00,,,0.00,55,WeatherCatV1.12B45,2013-02-18 14:17:00,
2013-02-18 07:22:00,16.4,1.9,29.94,WSW,254,7.0,12.0,52,0.00,,,0.00,79,WeatherCatV1.12B45,2013-02-18 14:22:00,
2013-02-18 07:27:00,17.0,-0.2,29.94,NNW,339,5.0,12.0,46,0.00,,,0.00,99,WeatherCatV1.12B45,2013-02-18 14:27:00,
2013-02-18 07:32:00,17.7,-2.0,29.94,West,260,18.0,18.0,41,0.00,,,0.00,118,WeatherCatV1.12B45,2013-02-18 14:32:00,
2013-02-18 07:37:00,18.1,-1.1,29.94,SW,219,12.0,16.0,42,0.00,,,0.00,137,WeatherCatV1.12B45,2013-02-18 14:37:00,
2013-02-18 07:42:00,18.3,-1.9,29.94,West,281,16.0,24.0,40,0.00,,,0.00,153,WeatherCatV1.12B45,2013-02-18 14:42:00,
2013-02-18 07:47:00,18.4,-2.9,29.95,WNW,284,16.0,17.0,38,0.00,,,0.00,169,WeatherCatV1.12B45,2013-02-18 14:47:00,
2013-02-18 07:52:00,18.6,-3.3,29.95,NW,320,12.0,19.0,37,0.00,,,0.00,187,WeatherCatV1.12B45,2013-02-18 14:52:00,
2013-02-18 07:57:00,18.6,-3.9,29.95,West,265,16.0,16.0,36,0.00,,,0.00,202,WeatherCatV1.12B45,2013-02-18 14:57:00,
2013-02-18 08:02:00,18.9,-3.0,29.96,SW,222,5.0,17.0,37,0.00,,,0.00,218,WeatherCatV1.12B45,2013-02-18 15:02:00,
2013-02-18 08:07:00,19.1,-4.0,29.96,West,268,14.0,21.0,35,0.00,,,0.00,234,WeatherCatV1.12B45,2013-02-18 15:07:00,
2013-02-18 08:12:00,19.1,-2.8,29.96,WSW,254,15.0,20.0,37,0.00,,,0.00,252,WeatherCatV1.12B45,2013-02-18 15:12:00,
2013-02-18 08:17:00,19.4,-2.6,29.97,WNW,287,17.0,19.0,37,0.00,,,0.00,267,WeatherCatV1.12B45,2013-02-18 15:17:00,
2013-02-18 08:22:00,19.5,-3.1,29.97,West,261,10.0,17.0,36,0.00,,,0.00,283,WeatherCatV1.12B45,2013-02-18 15:22:00,
2013-02-18 08:27:00,19.7,-2.9,29.97,WSW,254,19.0,19.0,36,0.00,,,0.00,299,WeatherCatV1.12B45,2013-02-18 15:27:00,
2013-02-18 08:32:00,19.9,-3.9,29.97,West,274,8.0,17.0,34,0.00,,,0.00,317,WeatherCatV1.12B45,2013-02-18 15:32:00,
2013-02-18 08:37:00,20.2,-3.6,29.97,WSW,244,14.0,17.0,34,0.00,,,0.00,331,WeatherCatV1.12B45,2013-02-18 15:37:00,
2013-02-18 08:42:00,20.3,-4.8,29.97,SW,232,16.0,16.0,32,0.00,,,0.00,348,WeatherCatV1.12B45,2013-02-18 15:42:00,
2013-02-18 08:47:00,20.5,-4.6,29.97,West,264,6.0,11.0,32,0.00,,,0.00,362,WeatherCatV1.12B45,2013-02-18 15:47:00,
2013-02-18 08:52:00,20.5,-4.6,29.97,West,280,15.0,18.0,32,0.00,,,0.00,375,WeatherCatV1.12B45,2013-02-18 15:52:00,
2013-02-18 08:57:00,20.6,-5.2,29.97,WNW,282,8.0,14.0,31,0.00,,,0.00,392,WeatherCatV1.12B45,2013-02-18 15:57:00,
2013-02-18 09:02:00,21.0,-2.9,29.97,WNW,284,17.0,20.0,34,0.00,,,0.00,406,WeatherCatV1.12B45,2013-02-18 16:02:00,
2013-02-18 09:07:00,21.0,-2.9,29.97,NW,306,6.0,9.0,34,0.00,,,0.00,422,WeatherCatV1.12B45,2013-02-18 16:07:00,
2013-02-18 09:12:00,21.4,-2.0,29.97,NW,311,7.0,13.0,35,0.00,,,0.00,438,WeatherCatV1.12B45,2013-02-18 16:12:00,
2013-02-18 09:17:00,21.6,-0.6,29.97,West,268,10.0,13.0,37,0.00,,,0.00,450,WeatherCatV1.12B45,2013-02-18 16:17:00,
2013-02-18 09:22:00,21.6,0.0,29.97,WSW,244,10.0,14.0,38,0.00,,,0.00,465,WeatherCatV1.12B45,2013-02-18 16:22:00,
2013-02-18 09:27:00,22.2,0.5,29.97,West,268,7.0,13.0,38,0.00,,,0.00,479,WeatherCatV1.12B45,2013-02-18 16:27:00,
2013-02-18 09:32:00,21.6,-1.2,29.98,SSW,210,10.0,13.0,36,0.00,,,0.00,493,WeatherCatV1.12B45,2013-02-18 16:32:00,
2013-02-18 09:37:00,21.4,-0.8,29.98,South,182,14.0,20.0,37,0.00,,,0.00,503,WeatherCatV1.12B45,2013-02-18 16:37:00,
2013-02-18 09:42:00,21.1,-1.6,29.98,SW,220,12.0,18.0,36,0.00,,,0.00,517,WeatherCatV1.12B45,2013-02-18 16:42:00,
2013-02-18 09:47:00,21.6,0.0,29.98,West,278,10.0,18.0,38,0.00,,,0.00,530,WeatherCatV1.12B45,2013-02-18 16:47:00,
2013-02-18 09:52:00,21.8,0.1,29.98,West,261,8.0,10.0,38,0.00,,,0.00,542,WeatherCatV1.12B45,2013-02-18 16:52:00,
2013-02-18 09:57:00,22.2,-0.6,29.98,South,176,11.0,20.0,36,0.00,,,0.00,554,WeatherCatV1.12B45,2013-02-18 16:57:00,
2013-02-18 10:02:00,22.2,-0.1,29.98,NW,322,1.0,18.0,37,0.00,,,0.00,563,WeatherCatV1.12B45,2013-02-18 17:02:00,
2013-02-18 10:07:00,22.7,0.4,29.98,West,261,12.0,17.0,37,0.00,,,0.00,574,WeatherCatV1.12B45,2013-02-18 17:07:00,
2013-02-18 10:12:00,23.2,1.4,29.98,WSW,250,12.0,19.0,38,0.00,,,0.00,584,WeatherCatV1.12B45,2013-02-18 17:12:00,
2013-02-18 10:17:00,22.9,1.1,29.97,West,272,6.0,21.0,38,0.00,,,0.00,595,WeatherCatV1.12B45,2013-02-18 17:17:00,
2013-02-18 10:22:00,23.3,2.0,29.97,WSW,250,11.0,21.0,39,0.00,,,0.00,607,WeatherCatV1.12B45,2013-02-18 17:22:00,
2013-02-18 10:27:00,23.0,1.2,29.97,WSW,246,10.0,17.0,38,0.00,,,0.00,616,WeatherCatV1.12B45,2013-02-18 17:27:00,
2013-02-18 10:32:00,23.0,1.2,29.98,WSW,248,12.0,15.0,38,0.00,,,0.00,625,WeatherCatV1.12B45,2013-02-18 17:32:00,
2013-02-18 10:37:00,23.2,3.0,29.98,SW,217,18.0,20.0,41,0.00,,,0.00,632,WeatherCatV1.12B45,2013-02-18 17:37:00,
2013-02-18 10:42:00,23.0,1.2,29.98,SW,224,11.0,19.0,38,0.00,,,0.00,640,WeatherCatV1.12B45,2013-02-18 17:42:00,
2013-02-18 10:47:00,23.2,1.4,29.98,South,181,11.0,17.0,38,0.00,,,0.00,648,WeatherCatV1.12B45,2013-02-18 17:47:00,
2013-02-18 10:52:00,23.5,2.2,29.98,WSW,251,11.0,13.0,39,0.00,,,0.00,655,WeatherCatV1.12B45,2013-02-18 17:52:00,
2013-02-18 10:57:00,23.6,1.8,29.98,SW,217,16.0,22.0,38,0.00,,,0.00,656,WeatherCatV1.12B45,2013-02-18 17:57:00,
2013-02-18 11:02:00,23.6,3.4,29.98,SSW,212,6.0,10.0,41,0.00,,,0.00,651,WeatherCatV1.12B45,2013-02-18 18:02:00,
2013-02-18 11:07:00,23.8,1.9,29.98,WSW,239,11.0,21.0,38,0.00,,,0.00,672,WeatherCatV1.12B45,2013-02-18 18:07:00,
2013-02-18 11:12:00,23.9,2.6,29.98,SW,219,10.0,12.0,39,0.00,,,0.00,679,WeatherCatV1.12B45,2013-02-18 18:12:00,
2013-02-18 11:17:00,23.9,3.1,29.98,WSW,254,14.0,21.0,40,0.00,,,0.00,681,WeatherCatV1.12B45,2013-02-18 18:17:00,
2013-02-18 11:22:00,24.2,2.3,29.98,SW,229,16.0,17.0,38,0.00,,,0.00,686,WeatherCatV1.12B45,2013-02-18 18:22:00,
2013-02-18 11:27:00,24.4,2.5,29.98,WSW,244,17.0,20.0,38,0.00,,,0.00,690,WeatherCatV1.12B45,2013-02-18 18:27:00,
2013-02-18 11:32:00,24.8,2.3,29.97,WNW,288,10.0,20.0,37,0.00,,,0.00,697,WeatherCatV1.12B45,2013-02-18 18:32:00,
2013-02-18 11:37:00,24.8,1.7,29.97,WSW,237,10.0,18.0,36,0.00,,,0.00,700,WeatherCatV1.12B45,2013-02-18 18:37:00,
2013-02-18 11:42:00,25.3,2.1,29.97,West,261,15.0,16.0,36,0.00,,,0.00,700,WeatherCatV1.12B45,2013-02-18 18:42:00,
2013-02-18 11:47:00,25.3,2.1,29.97,WSW,253,19.0,26.0,36,0.00,,,0.00,706,WeatherCatV1.12B45,2013-02-18 18:47:00,
2013-02-18 11:52:00,25.4,2.2,29.97,WSW,239,6.0,21.0,36,0.00,,,0.00,707,WeatherCatV1.12B45,2013-02-18 18:52:00,
2013-02-18 11:57:00,25.6,1.8,29.97,SW,219,17.0,24.0,35,0.00,,,0.00,711,WeatherCatV1.12B45,2013-02-18 18:57:00,
2013-02-18 12:02:00,25.6,1.8,29.97,NW,311,7.0,28.0,35,0.00,,,0.00,711,WeatherCatV1.12B45,2013-02-18 19:02:00,
2013-02-18 12:07:00,25.8,2.0,29.97,West,268,18.0,18.0,35,0.00,,,0.00,709,WeatherCatV1.12B45,2013-02-18 19:07:00,
2013-02-18 12:12:00,25.7,2.5,29.97,WNW,282,19.0,20.0,36,0.00,,,0.00,711,WeatherCatV1.12B45,2013-02-18 19:12:00,
2013-02-18 12:17:00,25.8,0.7,29.97,SSW,192,11.0,20.0,33,0.00,,,0.00,711,WeatherCatV1.12B45,2013-02-18 19:17:00,
2013-02-18 12:22:00,26.0,1.5,29.97,West,263,14.0,25.0,34,0.00,,,0.00,711,WeatherCatV1.12B45,2013-02-18 19:22:00,
2013-02-18 12:27:00,26.0,1.5,29.97,SW,229,11.0,24.0,34,0.00,,,0.00,707,WeatherCatV1.12B45,2013-02-18 19:27:00,
2013-02-18 12:32:00,26.3,1.8,29.96,WNW,288,16.0,22.0,34,0.00,,,0.00,707,WeatherCatV1.12B45,2013-02-18 19:32:00,
2013-02-18 12:37:00,26.4,0.6,29.96,WSW,254,8.0,21.0,32,0.00,,,0.00,706,WeatherCatV1.12B45,2013-02-18 19:37:00,
2013-02-18 12:42:00,26.4,1.9,29.96,WNW,284,6.0,17.0,34,0.00,,,0.00,700,WeatherCatV1.12B45,2013-02-18 19:42:00,
2013-02-18 12:47:00,26.9,2.3,29.96,WSW,258,10.0,19.0,34,0.00,,,0.00,700,WeatherCatV1.12B45,2013-02-18 19:47:00,
2013-02-18 12:52:00,26.4,1.2,29.96,SW,234,10.0,20.0,33,0.00,,,0.00,693,WeatherCatV1.12B45,2013-02-18 19:52:00,
2013-02-18 12:57:00,26.4,0.6,29.96,West,261,20.0,27.0,32,0.00,,,0.00,691,WeatherCatV1.12B45,2013-02-18 19:57:00,
2013-02-18 13:02:00,26.6,0.8,29.96,SW,224,17.0,19.0,32,0.00,,,0.00,686,WeatherCatV1.12B45,2013-02-18 20:02:00,
2013-02-18 13:07:00,26.9,0.4,29.96,WSW,251,10.0,20.0,31,0.00,,,0.00,683,WeatherCatV1.12B45,2013-02-18 20:07:00,
2013-02-18 13:12:00,27.8,1.1,29.96,West,260,1.0,14.0,31,0.00,,,0.00,679,WeatherCatV1.12B45,2013-02-18 20:12:00,
2013-02-18 13:17:00,28.1,1.4,29.96,West,277,19.0,26.0,31,0.00,,,0.00,674,WeatherCatV1.12B45,2013-02-18 20:17:00,
2013-02-18 13:22:00,27.3,0.0,29.96,WSW,257,6.0,18.0,30,0.00,,,0.00,667,WeatherCatV1.12B45,2013-02-18 20:22:00,
2013-02-18 13:27:00,27.2,0.6,29.96,SW,217,21.0,22.0,31,0.00,,,0.00,662,WeatherCatV1.12B45,2013-02-18 20:27:00,
2013-02-18 13:32:00,26.7,-1.2,29.96,WNW,294,6.0,24.0,29,0.00,,,0.00,656,WeatherCatV1.12B45,2013-02-18 20:32:00,
2013-02-18 13:37:00,27.0,-0.3,29.96,SW,215,7.0,19.0,30,0.00,,,0.00,640,WeatherCatV1.12B45,2013-02-18 20:37:00,
2013-02-18 13:42:00,27.6,-0.4,29.96,WSW,246,6.0,18.0,29,0.00,,,0.00,642,WeatherCatV1.12B45,2013-02-18 20:42:00,
2013-02-18 13:47:00,27.3,-1.5,29.96,West,271,12.0,14.0,28,0.00,,,0.00,623,WeatherCatV1.12B45,2013-02-18 20:47:00,
2013-02-18 13:52:00,27.5,-1.3,29.96,SSW,202,13.0,18.0,28,0.00,,,0.00,619,WeatherCatV1.12B45,2013-02-18 20:52:00,
2013-02-18 13:57:00,27.3,-2.2,29.96,SSW,205,11.0,19.0,27,0.00,,,0.00,619,WeatherCatV1.12B45,2013-02-18 20:57:00,
2013-02-18 14:02:00,27.8,-1.0,29.95,SW,215,8.0,17.0,28,0.00,,,0.00,611,WeatherCatV1.12B45,2013-02-18 21:02:00,
2013-02-18 14:07:00,28.1,-0.8,29.95,West,274,7.0,17.0,28,0.00,,,0.00,598,WeatherCatV1.12B45,2013-02-18 21:07:00,
2013-02-18 14:12:00,28.1,-1.5,29.95,South,189,7.0,24.0,27,0.00,,,0.00,579,WeatherCatV1.12B45,2013-02-18 21:12:00,
2013-02-18 14:17:00,28.2,-1.4,29.95,WNW,285,12.0,16.0,27,0.00,,,0.00,588,WeatherCatV1.12B45,2013-02-18 21:17:00,
2013-02-18 14:22:00,28.8,-0.9,29.95,WNW,301,14.0,20.0,27,0.00,,,0.00,570,WeatherCatV1.12B45,2013-02-18 21:22:00,
2013-02-18 14:27:00,28.8,-1.7,29.95,WSW,256,17.0,35.0,26,0.00,,,0.00,523,WeatherCatV1.12B45,2013-02-18 21:27:00,
2013-02-18 14:33:00,28.7,-1.0,29.95,WSW,243,20.0,25.0,27,0.00,,,0.00,537,WeatherCatV1.12B45,2013-02-18 21:33:00,
2013-02-18 14:37:00,28.2,-1.4,29.95,SW,215,7.0,28.0,27,0.00,,,0.00,533,WeatherCatV1.12B45,2013-02-18 21:37:00,
2013-02-18 14:42:00,28.8,-0.9,29.95,SSW,210,11.0,21.0,27,0.00,,,0.00,517,WeatherCatV1.12B45,2013-02-18 21:42:00,
2013-02-18 14:48:00,29.0,-1.5,29.95,South,176,17.0,28.0,26,0.00,,,0.00,498,WeatherCatV1.12B45,2013-02-18 21:48:00,
2013-02-18 14:52:00,28.5,-1.2,29.95,WSW,241,7.0,22.0,27,0.00,,,0.00,493,WeatherCatV1.12B45,2013-02-18 21:52:00,
2013-02-18 14:58:00,28.8,-0.9,29.95,South,184,6.0,25.0,27,0.00,,,0.00,479,WeatherCatV1.12B45,2013-02-18 21:58:00,
2013-02-18 15:02:00,29.0,-0.7,29.95,South,174,14.0,14.0,27,0.00,,,0.00,456,WeatherCatV1.12B45,2013-02-18 22:02:00,
2013-02-18 15:08:00,28.7,-1.8,29.95,WNW,287,9.0,16.0,26,0.00,,,0.00,447,WeatherCatV1.12B45,2013-02-18 22:08:00,
2013-02-18 15:13:00,29.0,-0.7,29.95,SW,223,7.0,20.0,27,0.00,,,0.00,442,WeatherCatV1.12B45,2013-02-18 22:13:00,
2013-02-18 15:18:00,29.3,-1.3,29.95,West,261,13.0,17.0,26,0.00,,,0.00,422,WeatherCatV1.12B45,2013-02-18 22:18:00,
2013-02-18 15:23:00,28.4,-1.3,29.95,South,178,6.0,19.0,27,0.00,,,0.00,417,WeatherCatV1.12B45,2013-02-18 22:23:00,
2013-02-18 15:28:00,28.8,-0.9,29.95,WSW,243,7.0,17.0,27,0.00,,,0.00,394,WeatherCatV1.12B45,2013-02-18 22:28:00,
2013-02-18 15:32:00,28.7,-1.0,29.96,WSW,256,10.0,19.0,27,0.00,,,0.00,338,WeatherCatV1.12B45,2013-02-18 22:32:00,
2013-02-18 15:38:00,28.5,-1.2,29.96,South,181,6.0,18.0,27,0.00,,,0.00,357,WeatherCatV1.12B45,2013-02-18 22:38:00,
2013-02-18 15:43:00,28.5,-0.4,29.96,South,184,16.0,22.0,28,0.00,,,0.00,336,WeatherCatV1.12B45,2013-02-18 22:43:00,
2013-02-18 15:48:00,28.7,-1.0,29.97,SW,224,7.0,12.0,27,0.00,,,0.00,324,WeatherCatV1.12B45,2013-02-18 22:48:00,
2013-02-18 15:53:00,28.2,-1.4,29.97,West,272,7.0,14.0,27,0.00,,,0.00,308,WeatherCatV1.12B45,2013-02-18 22:53:00,
2013-02-18 15:58:00,27.9,-0.9,29.97,SSW,196,5.0,18.0,28,0.00,,,0.00,308,WeatherCatV1.12B45,2013-02-18 22:58:00,
2013-02-18 16:03:00,27.6,-1.2,29.97,SSW,193,8.0,19.0,28,0.00,,,0.00,289,WeatherCatV1.12B45,2013-02-18 23:03:00,
2013-02-18 16:08:00,27.5,-1.3,29.97,SW,217,19.0,19.0,28,0.00,,,0.00,274,WeatherCatV1.12B45,2013-02-18 23:08:00,
2013-02-18 16:13:00,27.5,-0.5,29.97,SE,133,7.0,22.0,29,0.00,,,0.00,257,WeatherCatV1.12B45,2013-02-18 23:13:00,
2013-02-18 16:18:00,27.5,-0.5,29.97,WSW,241,7.0,26.0,29,0.00,,,0.00,238,WeatherCatV1.12B45,2013-02-18 23:18:00,
2013-02-18 16:23:00,27.2,-1.5,29.97,SW,232,14.0,18.0,28,0.00,,,0.00,225,WeatherCatV1.12B45,2013-02-18 23:23:00,
2013-02-18 16:28:00,27.2,-1.5,29.97,South,189,13.0,14.0,28,0.00,,,0.00,209,WeatherCatV1.12B45,2013-02-18 23:28:00,
2013-02-18 16:33:00,27.0,-1.7,29.98,SSE,151,8.0,17.0,28,0.00,,,0.00,192,WeatherCatV1.12B45,2013-02-18 23:33:00,
2013-02-18 16:38:00,26.7,-2.0,29.98,SSW,208,13.0,16.0,28,0.00,,,0.00,172,WeatherCatV1.12B45,2013-02-18 23:38:00,
2013-02-18 16:43:00,26.3,-1.6,29.98,South,175,13.0,28.0,29,0.00,,,0.00,146,WeatherCatV1.12B45,2013-02-18 23:43:00,
2013-02-18 16:48:00,26.0,-2.6,29.99,SSE,157,4.0,14.0,28,0.00,,,0.00,128,WeatherCatV1.12B45,2013-02-18 23:48:00,
2013-02-18 16:53:00,25.7,-2.1,29.99,SSE,167,14.0,22.0,29,0.00,,,0.00,42,WeatherCatV1.12B45,2013-02-18 23:53:00,
2013-02-18 16:58:00,25.1,-2.6,29.99,South,185,13.0,18.0,29,0.00,,,0.00,23,WeatherCatV1.12B45,2013-02-18 23:58:00,
2013-02-18 17:03:00,25.0,-2.0,29.99,South,182,14.0,24.0,30,0.00,,,0.00,21,WeatherCatV1.12B45,2013-02-19 00:03:00,
2013-02-18 17:08:00,24.8,-2.9,29.99,SSW,203,8.0,20.0,29,0.00,,,0.00,21,WeatherCatV1.12B45,2013-02-19 00:08:00,
2013-02-18 17:13:00,24.8,-2.9,29.99,South,184,7.0,14.0,29,0.00,,,0.00,19,WeatherCatV1.12B45,2013-02-19 00:13:00,
2013-02-18 17:18:00,24.8,-3.6,29.99,SW,222,3.0,15.0,28,0.00,,,0.00,18,WeatherCatV1.12B45,2013-02-19 00:18:00,
2013-02-18 17:23:00,25.0,-3.5,29.99,WSW,241,11.0,17.0,28,0.00,,,0.00,16,WeatherCatV1.12B45,2013-02-19 00:23:00,
2013-02-18 17:28:00,25.1,-3.4,29.99,West,265,12.0,25.0,28,0.00,,,0.00,14,WeatherCatV1.12B45,2013-02-19 00:28:00,
2013-02-18 17:33:00,25.0,-3.5,30.00,WSW,244,14.0,22.0,28,0.00,,,0.00,12,WeatherCatV1.12B45,2013-02-19 00:33:00,
2013-02-18 17:38:00,24.8,-4.4,30.00,WNW,284,20.0,28.0,27,0.00,,,0.00,9,WeatherCatV1.12B45,2013-02-19 00:38:00,
2013-02-18 17:43:00,24.7,-3.7,30.00,WNW,295,21.0,25.0,28,0.00,,,0.00,7,WeatherCatV1.12B45,2013-02-19 00:43:00,
2013-02-18 17:48:00,24.5,-4.6,30.00,WNW,292,17.0,20.0,27,0.00,,,0.00,5,WeatherCatV1.12B45,2013-02-19 00:48:00,
2013-02-18 17:53:00,24.5,-3.9,30.00,NW,309,18.0,20.0,28,0.00,,,0.00,0,WeatherCatV1.12B45,2013-02-19 00:53:00,
2013-02-18 17:58:00,24.5,-3.9,30.00,NW,312,10.0,25.0,28,0.00,,,0.00,0,WeatherCatV1.12B45,2013-02-19 00:58:00,
2013-02-18 18:03:00,24.5,-3.9,29.99,NW,325,13.0,28.0,28,0.00,,,0.00,0,WeatherCatV1.12B45,2013-02-19 01:03:00,
2013-02-18 18:08:00,24.4,-4.0,29.99,North,0,8.0,27.0,28,0.00,,,0.00,0,WeatherCatV1.12B45,2013-02-19 01:08:00,
2013-02-18 18:13:00,24.4,-4.0,29.99,NNW,340,10.0,21.0,28,0.00,,,0.00,0,WeatherCatV1.12B45,2013-02-19 01:13:00,
2013-02-18 18:18:00,24.4,-4.0,29.99,NW,319,16.0,22.0,28,0.00,,,0.00,0,WeatherCatV1.12B45,2013-02-19 01:18:00,
2013-02-18 18:23:00,24.4,-4.7,29.99,NNW,329,17.0,20.0,27,0.00,,,0.00,0,WeatherCatV1.12B45,2013-02-19 01:23:00,
2013-02-18 18:28:00,24.5,-4.6,29.99,NNW,333,6.0,11.0,27,0.00,,,0.00,0,WeatherCatV1.12B45,2013-02-19 01:28:00,
2013-02-18 18:33:00,24.5,-4.6,30.00,NW,308,12.0,21.0,27,0.00,,,0.00,0,WeatherCatV1.12B45,2013-02-19 01:33:00,
2013-02-18 18:38:00,24.5,-5.4,30.00,WNW,294,19.0,29.0,26,0.00,,,0.00,0,WeatherCatV1.12B45,2013-02-19 01:38:00,
2013-02-18 18:43:00,24.7,-5.2,30.00,NNW,332,7.0,19.0,26,0.00,,,0.00,0,WeatherCatV1.12B45,2013-02-19 01:43:00,
2013-02-18 18:48:00,24.7,-5.2,30.00,NNW,335,7.0,19.0,26,0.00,,,0.00,0,WeatherCatV1.12B45,2013-02-19 01:48:00,
2013-02-18 18:53:00,24.7,-6.1,30.00,West,263,4.0,13.0,25,0.00,,,0.00,0,WeatherCatV1.12B45,2013-02-19 01:53:00,
2013-02-18 18:58:00,24.5,-5.4,30.00,WNW,285,13.0,20.0,26,0.00,,,0.00,0,WeatherCatV1.12B45,2013-02-19 01:58:00,
2013-02-18 19:03:00,24.4,-5.5,30.00,West,271,17.0,24.0,26,0.00,,,0.00,0,WeatherCatV1.12B45,2013-02-19 02:03:00,
2013-02-18 19:08:00,24.4,-5.5,30.00,NNW,333,8.0,16.0,26,0.00,,,0.00,0,WeatherCatV1.12B45,2013-02-19 02:08:00,
2013-02-18 19:13:00,24.2,-4.9,30.00,NNW,330,12.0,16.0,27,0.00,,,0.00,0,WeatherCatV1.12B45,2013-02-19 02:13:00,
2013-02-18 19:18:00,24.2,-4.9,30.01,NNW,328,6.0,12.0,27,0.00,,,0.00,0,WeatherCatV1.12B45,2013-02-19 02:18:00,
2013-02-18 19:23:00,23.9,-4.4,30.01,WNW,292,5.0,16.0,28,0.00,,,0.00,0,WeatherCatV1.12B45,2013-02-19 02:23:00,
2013-02-18 19:28:00,23.6,-4.7,30.01,WSW,251,9.0,11.0,28,0.00,,,0.00,0,WeatherCatV1.12B45,2013-02-19 02:28:00,
2013-02-18 19:33:00,23.5,-4.8,30.02,NW,318,5.0,11.0,28,0.00,,,0.00,0,WeatherCatV1.12B45,2013-02-19 02:33:00,
2013-02-18 19:38:00,23.5,-5.5,30.02,WNW,294,6.0,14.0,27,0.00,,,0.00,0,WeatherCatV1.12B45,2013-02-19 02:38:00,
2013-02-18 19:43:00,23.6,-5.4,30.02,WSW,250,14.0,17.0,27,0.00,,,0.00,0,WeatherCatV1.12B45,2013-02-19 02:43:00,
2013-02-18 19:48:00,23.9,-5.2,30.02,WSW,247,5.0,18.0,27,0.00,,,0.00,0,WeatherCatV1.12B45,2013-02-19 02:48:00,
2013-02-18 19:53:00,24.1,-5.0,30.02,WNW,294,17.0,17.0,27,0.00,,,0.00,0,WeatherCatV1.12B45,2013-02-19 02:53:00,
2013-02-18 19:58:00,24.2,-4.1,30.02,West,271,8.0,16.0,28,0.00,,,0.00,0,WeatherCatV1.12B45,2013-02-19 02:58:00,
2013-02-18 20:03:00,24.4,-4.7,30.02,WNW,294,6.0,25.0,27,0.00,,,0.00,0,WeatherCatV1.12B45,2013-02-19 03:03:00,
2013-02-18 20:07:00,24.2,-4.9,30.02,WSW,239,16.0,19.0,27,0.00,,,0.00,0,WeatherCatV1.12B45,2013-02-19 03:07:00,
2013-02-18 20:10:00,24.4,-4.7,30.02,WNW,288,11.0,25.0,27,0.00,,,0.00,0,WeatherCatV1.12B45,2013-02-19 03:10:00,
2013-02-18 20:15:00,24.1,-4.2,30.02,WNW,292,11.0,19.0,28,0.00,,,0.00,0,WeatherCatV1.12B45,2013-02-19 03:15:00,
2013-02-18 20:20:00,24.1,-5.0,30.02,NW,315,10.0,25.0,27,0.00,,,0.00,0,WeatherCatV1.12B45,2013-02-19 03:20:00,
2013-02-18 20:25:00,24.1,-5.0,30.02,NW,315,10.0,25.0,27,0.00,,,0.00,0,WeatherCatV1.12B45,2013-02-19 03:25:00,
2013-02-18 20:30:00,24.1,-5.0,30.02,NW,315,10.0,25.0,27,0.00,,,0.00,0,WeatherCatV1.12B45,2013-02-19 03:30:00,
2013-02-18 20:35:00,23.9,-5.2,30.02,NW,315,10.0,19.0,27,0.00,,,0.00,0,WeatherCatV1.12B45,2013-02-19 03:35:00,
2013-02-18 20:40:00,23.9,-5.2,30.02,NW,315,10.0,19.0,27,0.00,,,0.00,0,WeatherCatV1.12B45,2013-02-19 03:40:00,
2013-02-18 20:45:00,23.9,-5.2,30.02,NW,315,10.0,19.0,27,0.00,,,0.00,0,WeatherCatV1.12B45,2013-02-19 03:45:00,
2013-02-18 20:50:00,23.8,-6.0,30.02,NNW,338,7.0,22.0,26,0.00,,,0.00,0,WeatherCatV1.12B45,2013-02-19 03:50:00,
2013-02-18 20:55:00,23.8,-6.0,30.02,NNW,338,7.0,22.0,26,0.00,,,0.00,0,WeatherCatV1.12B45,2013-02-19 03:55:00,
2013-02-18 21:00:00,23.8,-6.0,30.02,NNW,338,7.0,22.0,26,0.00,,,0.00,0,WeatherCatV1.12B45,2013-02-19 04:00:00,
2013-02-18 21:05:00,23.2,-7.3,30.03,NW,315,5.0,11.0,25,0.00,,,0.00,0,WeatherCatV1.12B45,2013-02-19 04:05:00,
2013-02-18 21:10:00,23.2,-7.3,30.03,NW,315,5.0,11.0,25,0.00,,,0.00,0,WeatherCatV1.12B45,2013-02-19 04:10:00,
2013-02-18 21:15:00,23.2,-7.3,30.03,NW,315,5.0,11.0,25,0.00,,,0.00,0,WeatherCatV1.12B45,2013-02-19 04:15:00,
2013-02-18 21:20:00,21.4,-6.6,30.03,NW,315,2.0,6.0,28,0.00,,,0.00,0,WeatherCatV1.12B45,2013-02-19 04:20:00,
2013-02-18 21:25:00,21.4,-6.6,30.03,NW,315,2.0,6.0,28,0.00,,,0.00,0,WeatherCatV1.12B45,2013-02-19 04:25:00,
2013-02-18 21:30:00,21.4,-6.6,30.03,NW,315,2.0,6.0,28,0.00,,,0.00,0,WeatherCatV1.12B45,2013-02-19 04:30:00,
2013-02-18 21:35:00,19.9,-6.5,30.04,NNW,338,1.0,5.0,30,0.00,,,0.00,0,WeatherCatV1.12B45,2013-02-19 04:35:00,
2013-02-18 21:40:00,19.9,-6.5,30.04,NNW,338,1.0,5.0,30,0.00,,,0.00,0,WeatherCatV1.12B45,2013-02-19 04:40:00,
2013-02-18 21:45:00,19.9,-6.5,30.04,NNW,338,1.0,5.0,30,0.00,,,0.00,0,WeatherCatV1.12B45,2013-02-19 04:45:00,
2013-02-18 21:50:00,17.7,-5.2,30.03,NNW,338,1.0,6.0,35,0.00,,,0.00,0,WeatherCatV1.12B45,2013-02-19 04:50:00,
2013-02-18 21:55:00,17.7,-5.2,30.03,NNW,338,1.0,6.0,35,0.00,,,0.00,0,WeatherCatV1.12B45,2013-02-19 04:55:00,
2013-02-18 22:00:00,17.7,-5.2,30.03,NNW,338,1.0,6.0,35,0.00,,,0.00,0,WeatherCatV1.12B45,2013-02-19 05:00:00,
2013-02-18 22:05:00,15.2,-6.3,30.04,NNW,338,2.0,6.0,37,0.00,,,0.00,0,WeatherCatV1.12B45,2013-02-19 05:05:00,
2013-02-18 22:10:00,15.2,-6.3,30.04,NNW,338,2.0,6.0,37,0.00,,,0.00,0,WeatherCatV1.12B45,2013-02-19 05:10:00,
2013-02-18 22:15:00,15.2,-6.3,30.04,NNW,338,2.0,6.0,37,0.00,,,0.00,0,WeatherCatV1.12B45,2013-02-19 05:15:00,
2013-02-18 22:20:00,13.8,-5.5,30.04,NNW,338,2.0,7.0,41,0.00,,,0.00,0,WeatherCatV1.12B45,2013-02-19 05:20:00,
2013-02-18 22:25:00,13.8,-5.5,30.04,NNW,338,2.0,7.0,41,0.00,,,0.00,0,WeatherCatV1.12B45,2013-02-19 05:25:00,
2013-02-18 22:30:00,13.8,-5.5,30.04,NNW,338,2.0,7.0,41,0.00,,,0.00,0,WeatherCatV1.12B45,2013-02-19 05:30:00,
2013-02-18 22:35:00,12.9,-6.3,30.04,North,0,3.0,7.0,41,0.00,,,0.00,0,WeatherCatV1.12B45,2013-02-19 05:35:00,
2013-02-18 22:40:00,12.9,-6.3,30.04,North,0,3.0,7.0,41,0.00,,,0.00,0,WeatherCatV1.12B45,2013-02-19 05:40:00,
2013-02-18 22:45:00,12.9,-6.3,30.04,North,0,3.0,7.0,41,0.00,,,0.00,0,WeatherCatV1.12B45,2013-02-19 05:45:00,
2013-02-18 22:50:00,12.1,-5.6,30.04,North,0,1.0,3.0,44,0.00,,,0.00,0,WeatherCatV1.12B45,2013-02-19 05:50:00,
2013-02-18 22:55:00,12.1,-5.6,30.04,North,0,1.0,3.0,44,0.00,,,0.00,0,WeatherCatV1.12B45,2013-02-19 05:55:00,
2013-02-18 23:00:00,12.1,-5.6,30.04,North,0,1.0,3.0,44,0.00,,,0.00,0,WeatherCatV1.12B45,2013-02-19 06:00:00,
2013-02-18 23:05:00,11.6,-5.6,30.04,North,0,2.0,6.0,45,0.00,,,0.00,0,WeatherCatV1.12B45,2013-02-19 06:05:00,
2013-02-18 23:10:00,11.6,-5.6,30.04,North,0,2.0,6.0,45,0.00,,,0.00,0,WeatherCatV1.12B45,2013-02-19 06:10:00,
2013-02-18 23:15:00,11.6,-5.6,30.04,North,0,2.0,6.0,45,0.00,,,0.00,0,WeatherCatV1.12B45,2013-02-19 06:15:00,
2013-02-18 23:20:00,10.9,-5.3,30.03,North,0,1.0,3.0,47,0.00,,,0.00,0,WeatherCatV1.12B45,2013-02-19 06:20:00,
2013-02-18 23:25:00,10.9,-5.3,30.03,North,0,1.0,3.0,47,0.00,,,0.00,0,WeatherCatV1.12B45,2013-02-19 06:25:00,
2013-02-18 23:30:00,10.9,-5.3,30.03,North,0,1.0,3.0,47,0.00,,,0.00,0,WeatherCatV1.12B45,2013-02-19 06:30:00,
2013-02-18 23:35:00,10.7,-5.5,30.04,North,0,1.0,3.0,47,0.00,,,0.00,0,WeatherCatV1.12B45,2013-02-19 06:35:00,
2013-02-18 23:40:00,10.7,-5.5,30.04,North,0,1.0,3.0,47,0.00,,,0.00,0,WeatherCatV1.12B45,2013-02-19 06:40:00,
2013-02-18 23:45:00,11.1,-6.5,30.04,North,0,2.0,6.0,44,0.00,,,0.00,0,WeatherCatV1.12B45,2013-02-19 06:45:00,
2013-02-18 23:50:00,11.1,-6.5,30.04,North,0,2.0,6.0,44,0.00,,,0.00,0,WeatherCatV1.12B45,2013-02-19 06:50:00,
2013-02-18 23:55:00,11.1,-6.5,30.04,North,0,2.0,6.0,44,0.00,,,0.00,0,WeatherCatV1.12B45,2013-02-19 06:55:00,